sensor_id;sensor_type;location;lat;lon;timestamp;pressure;altitude;pressure_sealevel;temperature;humidity
9784;BME280;4931;44.874;-1.092;2023-06-26T00:02:12;101981.41;;;20.72;100.00
9784;BME280;4931;44.874;-1.092;2023-06-26T00:04:37;101982.16;;;20.64;100.00
9784;BME280;4931;44.874;-1.092;2023-06-26T00:07:04;101994.03;;;20.70;100.00
9784;BME280;4931;44.874;-1.092;2023-06-26T00:09:29;101981.47;;;20.59;100.00
9784;BME280;4931;44.874;-1.092;2023-06-26T00:11:55;101980.66;;;20.58;100.00
9784;BME280;4931;44.874;-1.092;2023-06-26T00:14:20;101980.28;;;20.51;100.00
9784;BME280;4931;44.874;-1.092;2023-06-26T00:16:46;101984.63;;;20.43;100.00
9784;BME280;4931;44.874;-1.092;2023-06-26T00:19:15;101993.31;;;20.42;100.00
9784;BME280;4931;44.874;-1.092;2023-06-26T00:21:40;101997.06;;;20.37;100.00
9784;BME280;4931;44.874;-1.092;2023-06-26T00:24:06;101997.25;;;20.40;100.00
9784;BME280;4931;44.874;-1.092;2023-06-26T00:26:31;101992.00;;;20.39;100.00
9784;BME280;4931;44.874;-1.092;2023-06-26T00:28:57;101989.09;;;20.21;100.00
9784;BME280;4931;44.874;-1.092;2023-06-26T00:31:22;101990.75;;;20.22;100.00
9784;BME280;4931;44.874;-1.092;2023-06-26T00:33:48;101986.78;;;20.23;100.00
9784;BME280;4931;44.874;-1.092;2023-06-26T00:36:13;101991.03;;;20.21;100.00
9784;BME280;4931;44.874;-1.092;2023-06-26T00:38:39;101987.25;;;20.17;100.00
9784;BME280;4931;44.874;-1.092;2023-06-26T00:41:05;101985.84;;;20.05;100.00
9784;BME280;4931;44.874;-1.092;2023-06-26T00:43:37;101980.91;;;20.02;100.00
9784;BME280;4931;44.874;-1.092;2023-06-26T00:46:03;101981.53;;;19.99;100.00
9784;BME280;4931;44.874;-1.092;2023-06-26T00:48:29;101988.88;;;19.95;100.00
9784;BME280;4931;44.874;-1.092;2023-06-26T00:50:55;101985.19;;;19.86;100.00
9784;BME280;4931;44.874;-1.092;2023-06-26T00:53:21;101989.59;;;19.87;100.00
9784;BME280;4931;44.874;-1.092;2023-06-26T00:55:47;101989.59;;;19.87;100.00
9784;BME280;4931;44.874;-1.092;2023-06-26T00:58:12;101983.63;;;19.80;100.00
9784;BME280;4931;44.874;-1.092;2023-06-26T01:00:38;101988.28;;;19.70;100.00
9784;BME280;4931;44.874;-1.092;2023-06-26T01:03:04;101987.16;;;19.71;100.00
9784;BME280;4931;44.874;-1.092;2023-06-26T01:05:29;101985.28;;;19.81;100.00
9784;BME280;4931;44.874;-1.092;2023-06-26T01:07:57;101988.38;;;19.79;100.00
9784;BME280;4931;44.874;-1.092;2023-06-26T01:10:23;101991.28;;;19.74;100.00
9784;BME280;4931;44.874;-1.092;2023-06-26T01:12:49;101990.66;;;19.63;100.00
9784;BME280;4931;44.874;-1.092;2023-06-26T01:15:15;101988.09;;;19.67;100.00
9784;BME280;4931;44.874;-1.092;2023-06-26T01:17:41;101995.63;;;19.66;100.00
9784;BME280;4931;44.874;-1.092;2023-06-26T01:20:10;101993.97;;;19.65;100.00
9784;BME280;4931;44.874;-1.092;2023-06-26T01:27:57;101994.19;;;19.55;100.00
9784;BME280;4931;44.874;-1.092;2023-06-26T01:30:25;101990.38;;;19.51;100.00
9784;BME280;4931;44.874;-1.092;2023-06-26T01:32:51;101987.16;;;19.57;100.00
9784;BME280;4931;44.874;-1.092;2023-06-26T01:35:17;101989.03;;;19.62;100.00
9784;BME280;4931;44.874;-1.092;2023-06-26T01:37:42;101991.09;;;19.56;100.00
9784;BME280;4931;44.874;-1.092;2023-06-26T01:40:08;101984.28;;;19.49;100.00
9784;BME280;4931;44.874;-1.092;2023-06-26T01:42:35;101986.06;;;19.45;100.00
9784;BME280;4931;44.874;-1.092;2023-06-26T01:45:16;101983.47;;;19.48;100.00
9784;BME280;4931;44.874;-1.092;2023-06-26T01:47:49;101980.00;;;19.43;100.00
9784;BME280;4931;44.874;-1.092;2023-06-26T01:50:22;101977.91;;;19.48;100.00
9784;BME280;4931;44.874;-1.092;2023-06-26T01:55:37;101975.75;;;19.45;100.00
9784;BME280;4931;44.874;-1.092;2023-06-26T01:58:05;101972.13;;;19.45;100.00
9784;BME280;4931;44.874;-1.092;2023-06-26T02:00:32;101969.47;;;19.39;100.00
9784;BME280;4931;44.874;-1.092;2023-06-26T02:02:58;101973.41;;;19.38;100.00
9784;BME280;4931;44.874;-1.092;2023-06-26T02:05:24;101969.19;;;19.41;100.00
9784;BME280;4931;44.874;-1.092;2023-06-26T02:07:50;101970.31;;;19.26;100.00
9784;BME280;4931;44.874;-1.092;2023-06-26T02:10:16;101976.28;;;19.19;100.00
9784;BME280;4931;44.874;-1.092;2023-06-26T02:12:42;101968.16;;;19.23;100.00
9784;BME280;4931;44.874;-1.092;2023-06-26T02:15:08;101967.03;;;19.24;100.00
9784;BME280;4931;44.874;-1.092;2023-06-26T02:17:34;101963.19;;;19.20;100.00
9784;BME280;4931;44.874;-1.092;2023-06-26T02:19:59;101971.66;;;19.15;100.00
9784;BME280;4931;44.874;-1.092;2023-06-26T02:22:25;101967.81;;;19.11;100.00
9784;BME280;4931;44.874;-1.092;2023-06-26T02:24:50;101972.38;;;19.06;100.00
9784;BME280;4931;44.874;-1.092;2023-06-26T02:27:16;101965.78;;;19.02;100.00
9784;BME280;4931;44.874;-1.092;2023-06-26T02:29:41;101971.31;;;18.88;100.00
9784;BME280;4931;44.874;-1.092;2023-06-26T02:32:08;101971.09;;;18.85;100.00
9784;BME280;4931;44.874;-1.092;2023-06-26T02:34:34;101976.44;;;18.81;100.00
9784;BME280;4931;44.874;-1.092;2023-06-26T02:36:59;101966.84;;;18.73;100.00
9784;BME280;4931;44.874;-1.092;2023-06-26T02:39:26;101970.66;;;18.78;100.00
9784;BME280;4931;44.874;-1.092;2023-06-26T02:41:51;101966.59;;;18.89;100.00
9784;BME280;4931;44.874;-1.092;2023-06-26T02:44:17;101972.06;;;18.94;100.00
9784;BME280;4931;44.874;-1.092;2023-06-26T02:46:43;101968.66;;;18.97;100.00
9784;BME280;4931;44.874;-1.092;2023-06-26T02:49:09;101967.00;;;18.96;100.00
9784;BME280;4931;44.874;-1.092;2023-06-26T02:51:34;101969.44;;;18.84;100.00
9784;BME280;4931;44.874;-1.092;2023-06-26T02:54:00;101981.19;;;18.81;100.00
9784;BME280;4931;44.874;-1.092;2023-06-26T02:56:26;101972.31;;;18.79;100.00
9784;BME280;4931;44.874;-1.092;2023-06-26T02:58:57;101970.66;;;18.78;100.00
9784;BME280;4931;44.874;-1.092;2023-06-26T03:01:23;101972.31;;;18.79;100.00
9784;BME280;4931;44.874;-1.092;2023-06-26T03:03:48;101980.34;;;18.66;100.00
9784;BME280;4931;44.874;-1.092;2023-06-26T03:06:15;101975.38;;;18.63;100.00
9784;BME280;4931;44.874;-1.092;2023-06-26T03:08:40;101973.44;;;18.64;100.00
9784;BME280;4931;44.874;-1.092;2023-06-26T03:11:07;101973.53;;;18.58;100.00
9784;BME280;4931;44.874;-1.092;2023-06-26T03:13:33;101971.41;;;18.50;100.00
9784;BME280;4931;44.874;-1.092;2023-06-26T03:15:59;101974.41;;;18.40;100.00
9784;BME280;4931;44.874;-1.092;2023-06-26T03:18:24;101975.75;;;18.42;100.00
9784;BME280;4931;44.874;-1.092;2023-06-26T03:20:50;101973.63;;;18.34;100.00
9784;BME280;4931;44.874;-1.092;2023-06-26T03:23:15;101970.75;;;18.25;100.00
9784;BME280;4931;44.874;-1.092;2023-06-26T03:25:41;101968.88;;;18.21;100.00
9784;BME280;4931;44.874;-1.092;2023-06-26T03:28:06;101964.28;;;18.30;100.00
9784;BME280;4931;44.874;-1.092;2023-06-26T03:30:31;101964.81;;;18.32;100.00
9784;BME280;4931;44.874;-1.092;2023-06-26T03:32:57;101963.16;;;18.31;100.00
9784;BME280;4931;44.874;-1.092;2023-06-26T03:35:22;101974.03;;;18.28;100.00
9784;BME280;4931;44.874;-1.092;2023-06-26T03:37:49;101977.03;;;18.31;100.00
9784;BME280;4931;44.874;-1.092;2023-06-26T03:40:14;101974.47;;;18.35;100.00
9784;BME280;4931;44.874;-1.092;2023-06-26T03:42:40;101978.53;;;18.23;100.00
9784;BME280;4931;44.874;-1.092;2023-06-26T03:45:05;101981.25;;;18.29;100.00
9784;BME280;4931;44.874;-1.092;2023-06-26T03:47:31;101982.06;;;18.29;100.00
9784;BME280;4931;44.874;-1.092;2023-06-26T03:49:57;101988.22;;;18.26;100.00
9784;BME280;4931;44.874;-1.092;2023-06-26T03:52:22;101987.34;;;18.12;100.00
9784;BME280;4931;44.874;-1.092;2023-06-26T03:54:49;101986.28;;;18.07;100.00
9784;BME280;4931;44.874;-1.092;2023-06-26T03:57:14;101988.53;;;18.05;100.00
9784;BME280;4931;44.874;-1.092;2023-06-26T03:59:40;101993.34;;;18.19;100.00
9784;BME280;4931;44.874;-1.092;2023-06-26T04:02:05;101993.94;;;18.16;100.00
9784;BME280;4931;44.874;-1.092;2023-06-26T04:04:31;102001.53;;;18.10;100.00
9784;BME280;4931;44.874;-1.092;2023-06-26T04:06:56;102000.88;;;17.99;100.00
9784;BME280;4931;44.874;-1.092;2023-06-26T04:09:24;101989.75;;;17.99;100.00
9784;BME280;4931;44.874;-1.092;2023-06-26T04:11:50;101989.16;;;18.02;100.00
9784;BME280;4931;44.874;-1.092;2023-06-26T04:14:15;101994.47;;;17.99;100.00
9784;BME280;4931;44.874;-1.092;2023-06-26T04:16:41;101991.19;;;17.97;100.00
9784;BME280;4931;44.874;-1.092;2023-06-26T04:19:07;101994.16;;;18.00;100.00
9784;BME280;4931;44.874;-1.092;2023-06-26T04:21:33;101989.25;;;17.92;100.00
9784;BME280;4931;44.874;-1.092;2023-06-26T04:23:58;102003.81;;;17.84;100.00
9784;BME280;4931;44.874;-1.092;2023-06-26T04:26:24;102001.44;;;17.96;100.00
9784;BME280;4931;44.874;-1.092;2023-06-26T04:28:53;102001.88;;;17.84;100.00
9784;BME280;4931;44.874;-1.092;2023-06-26T04:31:19;102000.38;;;17.92;100.00
9784;BME280;4931;44.874;-1.092;2023-06-26T04:33:44;102002.63;;;17.90;100.00
9784;BME280;4931;44.874;-1.092;2023-06-26T04:36:10;102008.66;;;17.97;100.00
9784;BME280;4931;44.874;-1.092;2023-06-26T04:38:36;102015.88;;;17.98;100.00
9784;BME280;4931;44.874;-1.092;2023-06-26T04:41:02;102011.44;;;17.97;100.00
9784;BME280;4931;44.874;-1.092;2023-06-26T04:43:28;102016.38;;;18.00;100.00
9784;BME280;4931;44.874;-1.092;2023-06-26T04:45:53;102002.97;;;18.07;100.00
9784;BME280;4931;44.874;-1.092;2023-06-26T04:48:19;102011.78;;;18.09;100.00
9784;BME280;4931;44.874;-1.092;2023-06-26T04:50:45;102019.16;;;18.00;100.00
9784;BME280;4931;44.874;-1.092;2023-06-26T04:53:19;102018.44;;;17.89;100.00
9784;BME280;4931;44.874;-1.092;2023-06-26T04:55:44;102026.72;;;17.95;100.00
9784;BME280;4931;44.874;-1.092;2023-06-26T04:58:10;102025.06;;;17.94;100.00
9784;BME280;4931;44.874;-1.092;2023-06-26T05:00:36;102018.28;;;17.81;100.00
9784;BME280;4931;44.874;-1.092;2023-06-26T05:03:01;102030.53;;;17.80;100.00
9784;BME280;4931;44.874;-1.092;2023-06-26T05:05:28;102032.16;;;17.81;100.00
9784;BME280;4931;44.874;-1.092;2023-06-26T05:07:56;102043.69;;;17.93;100.00
9784;BME280;4931;44.874;-1.092;2023-06-26T05:10:22;102032.53;;;17.98;100.00
9784;BME280;4931;44.874;-1.092;2023-06-26T05:12:48;102037.31;;;18.12;100.00
9784;BME280;4931;44.874;-1.092;2023-06-26T05:15:13;102042.19;;;18.20;100.00
9784;BME280;4931;44.874;-1.092;2023-06-26T05:17:39;102043.16;;;18.29;100.00
9784;BME280;4931;44.874;-1.092;2023-06-26T05:20:05;102042.41;;;18.42;100.00
9784;BME280;4931;44.874;-1.092;2023-06-26T05:22:32;102042.09;;;18.44;100.00
9784;BME280;4931;44.874;-1.092;2023-06-26T05:24:59;102042.91;;;18.45;100.00
9784;BME280;4931;44.874;-1.092;2023-06-26T05:27:26;102042.22;;;18.53;100.00
9784;BME280;4931;44.874;-1.092;2023-06-26T05:29:52;102047.41;;;18.60;100.00
9784;BME280;4931;44.874;-1.092;2023-06-26T05:32:18;102040.03;;;18.69;100.00
9784;BME280;4931;44.874;-1.092;2023-06-26T05:34:46;102040.84;;;18.69;100.00
9784;BME280;4931;44.874;-1.092;2023-06-26T05:39:43;102048.06;;;18.70;100.00
9784;BME280;4931;44.874;-1.092;2023-06-26T05:42:09;102045.38;;;18.65;100.00
9784;BME280;4931;44.874;-1.092;2023-06-26T05:44:35;102045.19;;;18.75;100.00
9784;BME280;4931;44.874;-1.092;2023-06-26T05:47:00;102046.66;;;18.87;100.00
9784;BME280;4931;44.874;-1.092;2023-06-26T05:49:26;102051.84;;;18.94;100.00
9784;BME280;4931;44.874;-1.092;2023-06-26T05:51:51;102057.44;;;19.07;100.00
9784;BME280;4931;44.874;-1.092;2023-06-26T05:54:17;102056.63;;;19.21;100.00
9784;BME280;4931;44.874;-1.092;2023-06-26T05:56:43;102058.28;;;19.22;100.00
9784;BME280;4931;44.874;-1.092;2023-06-26T05:59:10;102061.59;;;19.38;100.00
9784;BME280;4931;44.874;-1.092;2023-06-26T06:01:36;102069.22;;;19.32;100.00
9784;BME280;4931;44.874;-1.092;2023-06-26T06:04:01;102064.97;;;19.21;100.00
9784;BME280;4931;44.874;-1.092;2023-06-26T06:06:27;102071.56;;;19.25;100.00
9784;BME280;4931;44.874;-1.092;2023-06-26T06:08:52;102074.78;;;19.32;100.00
9784;BME280;4931;44.874;-1.092;2023-06-26T06:11:18;102071.47;;;19.30;100.00
9784;BME280;4931;44.874;-1.092;2023-06-26T06:13:43;102072.13;;;19.41;100.00
9784;BME280;4931;44.874;-1.092;2023-06-26T06:16:09;102076.84;;;19.40;100.00
9784;BME280;4931;44.874;-1.092;2023-06-26T06:18:34;102073.34;;;19.49;100.00
9784;BME280;4931;44.874;-1.092;2023-06-26T06:21:00;102078.63;;;19.50;100.00
9784;BME280;4931;44.874;-1.092;2023-06-26T06:23:26;102080.97;;;19.57;100.00
9784;BME280;4931;44.874;-1.092;2023-06-26T06:25:52;102090.84;;;19.63;100.00
9784;BME280;4931;44.874;-1.092;2023-06-26T06:28:17;102084.88;;;19.56;100.00
9784;BME280;4931;44.874;-1.092;2023-06-26T06:30:43;102089.00;;;19.58;100.00
9784;BME280;4931;44.874;-1.092;2023-06-26T06:33:08;102086.34;;;19.67;100.00
9784;BME280;4931;44.874;-1.092;2023-06-26T06:35:34;102091.97;;;20.04;100.00
9784;BME280;4931;44.874;-1.092;2023-06-26T06:37:59;102088.78;;;20.11;100.00
9784;BME280;4931;44.874;-1.092;2023-06-26T06:40:25;102090.25;;;19.94;100.00
9784;BME280;4931;44.874;-1.092;2023-06-26T06:42:51;102092.94;;;19.99;100.00
9784;BME280;4931;44.874;-1.092;2023-06-26T06:45:16;102094.75;;;20.18;100.00
9784;BME280;4931;44.874;-1.092;2023-06-26T06:47:42;102088.16;;;20.00;100.00
9784;BME280;4931;44.874;-1.092;2023-06-26T06:50:07;102100.53;;;20.07;100.00
9784;BME280;4931;44.874;-1.092;2023-06-26T06:52:37;102103.16;;;19.90;100.00
9784;BME280;4931;44.874;-1.092;2023-06-26T06:55:04;102092.03;;;19.90;100.00
9784;BME280;4931;44.874;-1.092;2023-06-26T06:57:32;102095.19;;;19.97;100.00
9784;BME280;4931;44.874;-1.092;2023-06-26T07:00:11;102111.91;;;19.97;100.00
9784;BME280;4931;44.874;-1.092;2023-06-26T07:02:38;102111.91;;;19.97;100.00
9784;BME280;4931;44.874;-1.092;2023-06-26T07:05:05;102111.06;;;20.11;100.00
9784;BME280;4931;44.874;-1.092;2023-06-26T07:07:32;102108.41;;;20.05;100.00
9784;BME280;4931;44.874;-1.092;2023-06-26T07:10:00;102115.69;;;20.29;100.00
9784;BME280;4931;44.874;-1.092;2023-06-26T07:12:25;102111.47;;;20.18;100.00
9784;BME280;4931;44.874;-1.092;2023-06-26T07:14:51;102114.66;;;20.11;100.00
9784;BME280;4931;44.874;-1.092;2023-06-26T07:17:16;102115.03;;;20.32;100.00
9784;BME280;4931;44.874;-1.092;2023-06-26T07:19:42;102110.22;;;20.24;100.00
9784;BME280;4931;44.874;-1.092;2023-06-26T07:22:07;102114.41;;;20.35;100.00
9784;BME280;4931;44.874;-1.092;2023-06-26T07:24:33;102115.91;;;20.55;100.00
9784;BME280;4931;44.874;-1.092;2023-06-26T07:26:59;102111.69;;;20.81;100.00
9784;BME280;4931;44.874;-1.092;2023-06-26T07:29:26;102109.53;;;21.00;100.00
9784;BME280;4931;44.874;-1.092;2023-06-26T07:31:51;102118.56;;;21.06;100.00
9784;BME280;4931;44.874;-1.092;2023-06-26T07:34:17;102118.50;;;21.20;100.00
9784;BME280;4931;44.874;-1.092;2023-06-26T07:36:42;102120.31;;;21.25;100.00
9784;BME280;4931;44.874;-1.092;2023-06-26T07:39:07;102123.28;;;21.28;100.00
9784;BME280;4931;44.874;-1.092;2023-06-26T07:41:33;102114.06;;;21.19;100.00
9784;BME280;4931;44.874;-1.092;2023-06-26T07:43:58;102115.94;;;21.32;100.00
9784;BME280;4931;44.874;-1.092;2023-06-26T07:46:24;102112.72;;;21.48;100.00
9784;BME280;4931;44.874;-1.092;2023-06-26T07:48:50;102111.84;;;21.38;100.00
9784;BME280;4931;44.874;-1.092;2023-06-26T07:51:15;102108.13;;;21.52;100.00
9784;BME280;4931;44.874;-1.092;2023-06-26T07:53:41;102106.88;;;21.58;100.00
9784;BME280;4931;44.874;-1.092;2023-06-26T07:56:06;102108.13;;;21.52;100.00
9784;BME280;4931;44.874;-1.092;2023-06-26T07:58:32;102111.53;;;21.40;100.00
9784;BME280;4931;44.874;-1.092;2023-06-26T08:00:57;102109.88;;;21.62;100.00
9784;BME280;4931;44.874;-1.092;2023-06-26T08:03:23;102110.88;;;21.75;100.00
9784;BME280;4931;44.874;-1.092;2023-06-26T08:05:49;102115.81;;;21.78;100.00
9784;BME280;4931;44.874;-1.092;2023-06-26T08:08:14;102113.03;;;21.78;100.00
9784;BME280;4931;44.874;-1.092;2023-06-26T08:10:40;102118.31;;;21.97;100.00
9784;BME280;4931;44.874;-1.092;2023-06-26T08:13:05;102112.91;;;22.00;100.00
9784;BME280;4931;44.874;-1.092;2023-06-26T08:15:31;102115.88;;;22.13;100.00
9784;BME280;4931;44.874;-1.092;2023-06-26T08:17:56;102116.91;;;22.17;100.00
9784;BME280;4931;44.874;-1.092;2023-06-26T08:20:22;102112.34;;;22.38;100.00
9784;BME280;4931;44.874;-1.092;2023-06-26T08:22:48;102116.13;;;22.60;100.00
9784;BME280;4931;44.874;-1.092;2023-06-26T08:25:15;102112.81;;;22.58;100.00
9784;BME280;4931;44.874;-1.092;2023-06-26T08:27:41;102108.81;;;22.94;100.00
9784;BME280;4931;44.874;-1.092;2023-06-26T08:30:07;102107.16;;;23.19;100.00
9784;BME280;4931;44.874;-1.092;2023-06-26T08:32:32;102103.59;;;23.49;100.00
9784;BME280;4931;44.874;-1.092;2023-06-26T08:34:58;102108.81;;;23.59;100.00
9784;BME280;4931;44.874;-1.092;2023-06-26T08:37:24;102113.94;;;23.87;100.00
9784;BME280;4931;44.874;-1.092;2023-06-26T08:39:49;102105.34;;;24.22;100.00
9784;BME280;4931;44.874;-1.092;2023-06-26T08:42:15;102100.72;;;24.39;100.00
9784;BME280;4931;44.874;-1.092;2023-06-26T08:44:40;102097.72;;;24.65;100.00
9784;BME280;4931;44.874;-1.092;2023-06-26T08:47:06;102097.88;;;24.68;100.00
9784;BME280;4931;44.874;-1.092;2023-06-26T08:49:51;102088.59;;;25.01;100.00
9784;BME280;4931;44.874;-1.092;2023-06-26T08:52:30;102095.44;;;25.13;100.00
9784;BME280;4931;44.874;-1.092;2023-06-26T08:54:58;102089.53;;;25.06;100.00
9784;BME280;4931;44.874;-1.092;2023-06-26T08:57:25;102087.22;;;25.20;100.00
9784;BME280;4931;44.874;-1.092;2023-06-26T08:59:52;102084.63;;;25.02;100.00
9784;BME280;4931;44.874;-1.092;2023-06-26T09:02:17;102085.72;;;25.10;100.00
9784;BME280;4931;44.874;-1.092;2023-06-26T09:04:43;102091.97;;;25.41;100.00
9784;BME280;4931;44.874;-1.092;2023-06-26T09:07:08;102089.41;;;25.48;100.00
9784;BME280;4931;44.874;-1.092;2023-06-26T09:09:35;102078.34;;;25.30;100.00
9784;BME280;4931;44.874;-1.092;2023-06-26T09:12:04;102078.75;;;25.66;100.00
9784;BME280;4931;44.874;-1.092;2023-06-26T09:14:29;102073.03;;;25.62;100.00
9784;BME280;4931;44.874;-1.092;2023-06-26T09:16:55;102081.19;;;25.80;100.00
9784;BME280;4931;44.874;-1.092;2023-06-26T09:19:21;102085.88;;;26.00;100.00
9784;BME280;4931;44.874;-1.092;2023-06-26T09:21:49;102075.44;;;26.42;100.00
9784;BME280;4931;44.874;-1.092;2023-06-26T09:24:16;102081.81;;;26.39;100.00
9784;BME280;4931;44.874;-1.092;2023-06-26T09:26:42;102080.66;;;26.27;100.00
9784;BME280;4931;44.874;-1.092;2023-06-26T09:29:08;102081.38;;;26.24;100.00
9784;BME280;4931;44.874;-1.092;2023-06-26T09:31:37;102075.56;;;25.92;100.00
9784;BME280;4931;44.874;-1.092;2023-06-26T09:34:02;102073.31;;;26.51;100.00
9784;BME280;4931;44.874;-1.092;2023-06-26T09:36:29;102070.94;;;26.81;100.00
9784;BME280;4931;44.874;-1.092;2023-06-26T09:39:03;102069.53;;;27.20;100.00
9784;BME280;4931;44.874;-1.092;2023-06-26T09:41:30;102070.78;;;26.90;100.00
9784;BME280;4931;44.874;-1.092;2023-06-26T09:44:00;102068.72;;;26.87;100.00
9784;BME280;4931;44.874;-1.092;2023-06-26T09:46:27;102070.50;;;26.79;100.00
9784;BME280;4931;44.874;-1.092;2023-06-26T09:49:04;102063.25;;;26.94;100.00
9784;BME280;4931;44.874;-1.092;2023-06-26T09:51:31;102079.75;;;26.80;100.00
9784;BME280;4931;44.874;-1.092;2023-06-26T09:54:01;102071.78;;;26.82;100.00
9784;BME280;4931;44.874;-1.092;2023-06-26T09:56:27;102070.63;;;27.15;100.00
9784;BME280;4931;44.874;-1.092;2023-06-26T09:58:55;102079.34;;;27.10;100.00
9784;BME280;4931;44.874;-1.092;2023-06-26T10:01:25;102076.72;;;27.33;100.00
9784;BME280;4931;44.874;-1.092;2023-06-26T10:03:50;102078.34;;;27.18;100.00
9784;BME280;4931;44.874;-1.092;2023-06-26T10:06:19;102069.81;;;27.30;100.00
9784;BME280;4931;44.874;-1.092;2023-06-26T10:08:46;102066.81;;;27.55;100.00
9784;BME280;4931;44.874;-1.092;2023-06-26T10:11:16;102063.53;;;27.69;100.00
9784;BME280;4931;44.874;-1.092;2023-06-26T10:13:43;102067.66;;;27.91;100.00
9784;BME280;4931;44.874;-1.092;2023-06-26T10:16:12;102063.91;;;28.03;100.00
9784;BME280;4931;44.874;-1.092;2023-06-26T10:18:42;102067.38;;;27.96;100.00
9784;BME280;4931;44.874;-1.092;2023-06-26T10:21:09;102075.13;;;28.19;100.00
9784;BME280;4931;44.874;-1.092;2023-06-26T10:23:39;102061.63;;;28.28;100.00
9784;BME280;4931;44.874;-1.092;2023-06-26T10:26:06;102068.91;;;28.29;100.00
9784;BME280;4931;44.874;-1.092;2023-06-26T10:28:34;102072.91;;;28.28;100.00
9784;BME280;4931;44.874;-1.092;2023-06-26T10:31:01;102053.63;;;28.30;100.00
9784;BME280;4931;44.874;-1.092;2023-06-26T10:33:28;102072.78;;;28.41;100.00
9784;BME280;4931;44.874;-1.092;2023-06-26T10:36:13;102068.38;;;28.43;100.00
9784;BME280;4931;44.874;-1.092;2023-06-26T10:39:12;102074.00;;;28.63;100.00
9784;BME280;4931;44.874;-1.092;2023-06-26T10:41:41;102063.66;;;28.90;100.00
9784;BME280;4931;44.874;-1.092;2023-06-26T10:44:16;102066.78;;;28.85;100.00
9784;BME280;4931;44.874;-1.092;2023-06-26T10:46:52;102068.88;;;28.88;100.00
9784;BME280;4931;44.874;-1.092;2023-06-26T10:49:19;102074.50;;;29.11;100.00
9784;BME280;4931;44.874;-1.092;2023-06-26T10:51:50;102066.31;;;29.03;100.00
9784;BME280;4931;44.874;-1.092;2023-06-26T10:54:19;102076.84;;;29.06;100.00
9784;BME280;4931;44.874;-1.092;2023-06-26T10:56:49;102072.59;;;28.53;100.00
9784;BME280;4931;44.874;-1.092;2023-06-26T10:59:19;102068.75;;;28.22;100.00
9784;BME280;4931;44.874;-1.092;2023-06-26T11:01:53;102073.44;;;28.14;100.00
9784;BME280;4931;44.874;-1.092;2023-06-26T11:07:23;102074.84;;;28.44;100.00
9784;BME280;4931;44.874;-1.092;2023-06-26T11:09:59;102077.19;;;28.22;100.00
9784;BME280;4931;44.874;-1.092;2023-06-26T11:12:41;102075.88;;;28.16;100.00
9784;BME280;4931;44.874;-1.092;2023-06-26T11:15:12;102080.00;;;28.61;100.00
9784;BME280;4931;44.874;-1.092;2023-06-26T11:17:39;102083.34;;;29.10;100.00
9784;BME280;4931;44.874;-1.092;2023-06-26T11:20:06;102070.84;;;28.88;100.00
9784;BME280;4931;44.874;-1.092;2023-06-26T11:22:36;102075.09;;;28.97;100.00
9784;BME280;4931;44.874;-1.092;2023-06-26T11:25:03;102073.50;;;29.23;100.00
9784;BME280;4931;44.874;-1.092;2023-06-26T11:30:07;102077.84;;;28.94;100.00
9784;BME280;4931;44.874;-1.092;2023-06-26T11:32:33;102077.19;;;28.42;100.00
9784;BME280;4931;44.874;-1.092;2023-06-26T11:34:59;102081.38;;;28.48;100.00
9784;BME280;4931;44.874;-1.092;2023-06-26T11:37:25;102078.84;;;28.43;100.00
9784;BME280;4931;44.874;-1.092;2023-06-26T11:39:51;102082.41;;;28.20;100.00
9784;BME280;4931;44.874;-1.092;2023-06-26T11:42:20;102080.19;;;28.29;100.00
9784;BME280;4931;44.874;-1.092;2023-06-26T11:44:46;102077.19;;;28.42;100.00
9784;BME280;4931;44.874;-1.092;2023-06-26T11:47:16;102091.31;;;28.61;100.00
9784;BME280;4931;44.874;-1.092;2023-06-26T11:49:47;102087.34;;;29.05;100.00
9784;BME280;4931;44.874;-1.092;2023-06-26T11:52:13;102081.47;;;28.94;100.00
9784;BME280;4931;44.874;-1.092;2023-06-26T11:54:40;102077.66;;;28.63;100.00
9784;BME280;4931;44.874;-1.092;2023-06-26T11:57:05;102078.72;;;28.75;100.00
9784;BME280;4931;44.874;-1.092;2023-06-26T11:59:35;102092.66;;;28.48;100.00
9784;BME280;4931;44.874;-1.092;2023-06-26T12:02:10;102083.44;;;27.96;100.00
9784;BME280;4931;44.874;-1.092;2023-06-26T12:04:37;102092.06;;;28.19;100.00
9784;BME280;4931;44.874;-1.092;2023-06-26T12:07:03;102094.75;;;28.31;100.00
9784;BME280;4931;44.874;-1.092;2023-06-26T12:09:32;102087.00;;;28.48;100.00
9784;BME280;4931;44.874;-1.092;2023-06-26T12:12:01;102085.81;;;28.29;100.00
9784;BME280;4931;44.874;-1.092;2023-06-26T12:14:27;102082.41;;;28.20;100.00
9784;BME280;4931;44.874;-1.092;2023-06-26T12:16:54;102088.09;;;28.63;100.00
9784;BME280;4931;44.874;-1.092;2023-06-26T12:19:24;102084.84;;;28.61;100.00
9784;BME280;4931;44.874;-1.092;2023-06-26T12:21:51;102083.63;;;29.01;100.00
9784;BME280;4931;44.874;-1.092;2023-06-26T12:24:21;102078.97;;;28.89;100.00
9784;BME280;4931;44.874;-1.092;2023-06-26T12:26:53;102079.13;;;28.57;100.00
9784;BME280;4931;44.874;-1.092;2023-06-26T12:29:20;102076.91;;;28.67;100.00
9784;BME280;4931;44.874;-1.092;2023-06-26T12:31:51;102080.59;;;28.90;100.00
9784;BME280;4931;44.874;-1.092;2023-06-26T12:34:27;102075.09;;;28.97;100.00
9784;BME280;4931;44.874;-1.092;2023-06-26T12:36:52;102064.91;;;29.16;99.77
9784;BME280;4931;44.874;-1.092;2023-06-26T12:39:21;102066.91;;;28.92;100.00
9784;BME280;4931;44.874;-1.092;2023-06-26T12:41:54;102081.09;;;29.19;100.00
9784;BME280;4931;44.874;-1.092;2023-06-26T12:44:27;102075.41;;;29.15;100.00
9784;BME280;4931;44.874;-1.092;2023-06-26T12:46:58;102075.66;;;29.07;100.00
9784;BME280;4931;44.874;-1.092;2023-06-26T12:49:36;102075.84;;;29.41;100.00
9784;BME280;4931;44.874;-1.092;2023-06-26T12:52:04;102076.56;;;29.34;100.00
9784;BME280;4931;44.874;-1.092;2023-06-26T12:54:30;102076.41;;;29.27;100.00
9784;BME280;4931;44.874;-1.092;2023-06-26T12:56:57;102075.41;;;29.15;97.17
9784;BME280;4931;44.874;-1.092;2023-06-26T12:59:23;102081.09;;;29.19;98.75
9784;BME280;4931;44.874;-1.092;2023-06-26T13:01:49;102081.09;;;29.19;100.00
9784;BME280;4931;44.874;-1.092;2023-06-26T13:04:15;102080.22;;;29.15;100.00
9784;BME280;4931;44.874;-1.092;2023-06-26T13:06:40;102078.06;;;29.28;100.00